Terminal Aerodrome Forecast
Issued by NWS Spokane, WA

Home | Current Version | Previous Version | Text Only | Print | Product List | Glossary On
Versions: 1 2 3 4 5 6 7 8 9 10 11 12 13 14 15 16 17 18 19 20 21 22 23 24 25
000
FTUS46 KOTX 010525
TAFLWS
TAF
KLWS 010525Z 0106/0206 25007KT P6SM SCT080
     FM010800 22003KT P6SM SKC
     FM011200 19002KT P6SM BKN250
     FM012000 34006KT P6SM BKN050 OVC080 PROB30 0122/0202 -RA
     FM020300 13003KT P6SM SCT050 OVC080=

USA.gov is the U.S. government's official web portal to all federal, state and local government web resources and services.